Time;durP1;ratioP1;P1;durP2;ratioP2;P2;SDS_P1;SDS_P2;PMS_P1;PMS_P2;Temp;Humidity;BMP_temperature;BMP_pressure;BME280_temperature;BME280_humidity;BME280_pressure;Samples;Min_cycle;Max_cycle;Signal;HPM_P1;HPM_P2
2024/04/22 00:01:54;;;;;;;0.03;0.03;;;19.60;51.80;;;;;;5414835;26;20326;-52
2024/04/22 00:04:23;;;;;;;0.00;0.00;;;19.70;51.80;;;;;;5415058;26;20221;-46
2024/04/22 00:06:57;;;;;;;0.00;0.00;;;19.70;52.10;;;;;;5413830;26;20221;-49
2024/04/22 00:09:29;;;;;;;0.00;0.00;;;19.70;52.20;;;;;;5414103;26;20555;-46
2024/04/22 00:12:01;;;;;;;0.10;0.10;;;19.70;52.10;;;;;;5405055;26;20514;-50
2024/04/22 00:14:30;;;;;;;0.00;0.00;;;19.70;52.00;;;;;;5377906;26;20252;-49
2024/04/22 00:17:03;;;;;;;0.00;0.00;;;19.70;51.80;;;;;;5411349;26;20221;-48
2024/04/22 00:19:32;;;;;;;0.10;0.10;;;19.70;51.90;;;;;;5413767;26;20229;-47
2024/04/22 00:22:04;;;;;;;0.00;0.00;;;19.70;51.70;;;;;;5414447;26;20233;-46
2024/04/22 00:24:37;;;;;;;0.10;0.10;;;19.70;51.70;;;;;;5414740;26;20209;-49
2024/04/22 00:27:10;;;;;;;0.10;0.10;;;19.70;51.70;;;;;;5414574;26;20221;-54
2024/04/22 00:29:39;;;;;;;0.10;0.10;;;19.70;51.70;;;;;;5414648;26;20233;-49
2024/04/22 00:32:11;;;;;;;0.00;0.00;;;19.70;51.70;;;;;;5415130;26;20285;-48
2024/04/22 00:34:40;;;;;;;0.10;0.10;;;19.70;51.60;;;;;;5414516;26;20272;-54
2024/04/22 00:37:13;;;;;;;0.00;0.00;;;19.70;51.60;;;;;;5414264;26;20267;-53
2024/04/22 00:39:45;;;;;;;0.00;0.00;;;19.70;51.50;;;;;;5414560;26;20233;-46
2024/04/22 00:42:17;;;;;;;0.10;0.10;;;19.70;51.60;;;;;;5414510;26;20221;-47
2024/04/22 00:44:46;;;;;;;0.10;0.10;;;19.70;51.50;;;;;;5414006;26;20217;-51
2024/04/22 00:47:19;;;;;;;0.10;0.10;;;19.70;51.50;;;;;;5414033;26;20221;-47
2024/04/22 00:49:48;;;;;;;0.10;0.10;;;19.70;51.50;;;;;;5392261;26;20280;-50
2024/04/22 00:52:21;;;;;;;0.00;0.00;;;19.70;51.40;;;;;;5378781;26;20238;-50
2024/04/22 00:54:53;;;;;;;0.00;0.00;;;19.70;51.40;;;;;;5379118;26;20222;-51
2024/04/22 00:57:26;;;;;;;0.00;0.00;;;19.70;51.50;;;;;;5379124;26;20222;-53
2024/04/22 00:59:55;;;;;;;0.00;0.00;;;19.70;51.40;;;;;;5379208;26;20277;-48
2024/04/22 01:02:28;;;;;;;0.10;0.10;;;19.70;51.40;;;;;;5379484;26;20218;-49
2024/04/22 01:04:59;;;;;;;0.10;0.10;;;19.70;51.40;;;;;;5378491;26;20283;-50
2024/04/22 01:07:32;;;;;;;0.00;0.00;;;19.70;51.40;;;;;;5379421;26;20280;-47
2024/04/22 01:10:04;;;;;;;0.08;0.08;;;19.70;51.40;;;;;;5378472;26;20281;-50
2024/04/22 01:12:37;;;;;;;0.00;0.00;;;19.70;51.40;;;;;;5393034;26;20260;-48
2024/04/22 01:15:07;;;;;;;0.10;0.10;;;19.70;51.40;;;;;;5413547;26;20214;-47
2024/04/22 01:17:43;;;;;;;0.00;0.00;;;19.70;51.40;;;;;;5414842;26;20272;-47
2024/04/22 01:20:13;;;;;;;0.10;0.10;;;19.70;51.40;;;;;;5417583;26;20233;-50
2024/04/22 01:22:48;;;;;;;0.10;0.10;;;19.70;51.30;;;;;;5417639;26;20308;-46
2024/04/22 01:25:21;;;;;;;0.08;0.08;;;19.70;51.30;;;;;;5416702;26;20263;-48
2024/04/22 01:27:54;;;;;;;0.00;0.00;;;19.70;51.30;;;;;;5417234;26;20264;-51
2024/04/22 01:30:23;;;;;;;0.10;0.10;;;19.70;51.80;;;;;;5417140;26;20340;-47
2024/04/22 01:32:55;;;;;;;0.00;0.00;;;19.80;51.30;;;;;;5417139;26;20322;-47
2024/04/22 01:35:25;;;;;;;0.08;0.08;;;19.80;51.20;;;;;;5417478;26;20267;-48
2024/04/22 01:38:00;;;;;;;0.00;0.00;;;19.80;51.80;;;;;;5397848;26;20335;-49
2024/04/22 01:40:29;;;;;;;0.10;0.10;;;19.70;51.10;;;;;;5381204;26;20310;-48
2024/04/22 01:43:01;;;;;;;0.00;0.00;;;19.70;51.10;;;;;;5381287;26;20327;-47
2024/04/22 01:45:31;;;;;;;0.05;0.05;;;19.80;51.20;;;;;;5392311;26;20268;-47
2024/04/22 01:48:03;;;;;;;0.10;0.10;;;19.80;51.10;;;;;;5409779;26;20238;-47
2024/04/22 01:50:32;;;;;;;0.10;0.10;;;19.80;51.10;;;;;;5386311;26;20237;-48
2024/04/22 01:53:07;;;;;;;0.00;0.00;;;19.80;51.10;;;;;;5376410;26;20210;-49
2024/04/22 01:55:37;;;;;;;0.00;0.00;;;19.80;51.00;;;;;;5402265;26;20225;-51
2024/04/22 01:58:09;;;;;;;0.10;0.10;;;19.80;51.00;;;;;;5412385;26;20317;-47
2024/04/22 02:00:39;;;;;;;0.00;0.00;;;19.80;51.00;;;;;;5385581;26;20292;-51
2024/04/22 02:03:11;;;;;;;0.03;0.03;;;19.80;50.90;;;;;;5398642;26;20326;-51
2024/04/22 02:05:44;;;;;;;0.00;0.00;;;19.80;51.00;;;;;;5412251;26;20213;-63
2024/04/22 02:08:19;;;;;;;0.00;0.00;;;19.80;51.00;;;;;;5412150;26;20230;-48
2024/04/22 02:10:49;;;;;;;0.00;0.00;;;19.80;50.90;;;;;;5411054;26;20213;-50
2024/04/22 02:13:21;;;;;;;0.10;0.10;;;19.80;50.90;;;;;;5399853;26;20242;-51
2024/04/22 02:15:50;;;;;;;0.08;0.08;;;19.80;50.90;;;;;;5391353;26;20214;-49
2024/04/22 02:18:22;;;;;;;0.00;0.00;;;19.80;51.00;;;;;;5393436;26;20230;-50
2024/04/22 02:20:51;;;;;;;0.10;0.10;;;19.90;51.00;;;;;;5397735;26;20263;-47
2024/04/22 02:23:27;;;;;;;0.03;0.03;;;19.90;51.00;;;;;;5411461;26;20217;-47
2024/04/22 02:25:57;;;;;;;0.08;0.08;;;19.90;51.00;;;;;;5411954;26;20213;-48
2024/04/22 02:28:29;;;;;;;0.00;0.00;;;19.90;51.00;;;;;;5411181;26;20604;-51
2024/04/22 02:30:58;;;;;;;0.10;0.10;;;19.90;50.90;;;;;;5411458;26;20255;-48
2024/04/22 02:33:30;;;;;;;0.00;0.00;;;19.90;50.90;;;;;;5411542;26;20221;-50
2024/04/22 02:36:00;;;;;;;0.00;0.00;;;19.90;50.80;;;;;;5412302;26;20252;-48
2024/04/22 02:38:35;;;;;;;0.00;0.00;;;19.90;50.70;;;;;;5411759;26;20290;-48
2024/04/22 02:41:04;;;;;;;0.10;0.10;;;19.90;50.60;;;;;;5409318;26;20213;-52
2024/04/22 02:43:36;;;;;;;0.08;0.08;;;19.90;50.50;;;;;;5400572;26;20933;-55
2024/04/22 02:46:06;;;;;;;0.05;0.05;;;19.90;50.40;;;;;;5411917;26;20260;-48
2024/04/22 02:48:38;;;;;;;0.00;0.00;;;19.90;50.30;;;;;;5411332;26;20297;-47
2024/04/22 02:51:07;;;;;;;0.10;0.10;;;19.80;50.10;;;;;;5404573;26;20681;-50
2024/04/22 02:53:42;;;;;;;0.10;0.10;;;19.90;50.00;;;;;;5376658;26;20268;-47
2024/04/22 02:56:12;;;;;;;0.00;0.00;;;19.90;49.90;;;;;;5387695;26;20752;-50
2024/04/22 02:58:44;;;;;;;0.10;0.10;;;19.90;49.70;;;;;;5411450;26;20337;-48
2024/04/22 03:01:13;;;;;;;0.00;0.00;;;19.80;49.60;;;;;;5410230;26;20312;-49
2024/04/22 03:03:45;;;;;;;0.10;0.10;;;19.80;49.50;;;;;;5412031;26;20268;-50
2024/04/22 03:06:14;;;;;;;0.05;0.05;;;19.80;49.40;;;;;;5410373;26;20724;-47
2024/04/22 03:08:50;;;;;;;0.00;0.00;;;19.80;49.30;;;;;;5410815;26;20241;-52
2024/04/22 03:11:19;;;;;;;0.10;0.10;;;19.80;49.20;;;;;;5411256;26;20313;-50
2024/04/22 03:13:51;;;;;;;0.10;0.10;;;19.80;49.00;;;;;;5409557;26;20213;-47
2024/04/22 03:16:21;;;;;;;0.00;0.00;;;19.80;48.90;;;;;;5407686;26;20222;-48
2024/04/22 03:18:53;;;;;;;0.10;0.10;;;19.80;48.70;;;;;;5410655;26;20236;-54
2024/04/22 03:21:23;;;;;;;0.00;0.00;;;19.80;48.60;;;;;;5410205;26;20225;-48
2024/04/22 03:23:58;;;;;;;0.00;0.00;;;19.80;48.40;;;;;;5410684;26;20277;-53
2024/04/22 03:26:28;;;;;;;0.00;0.00;;;19.80;48.30;;;;;;5411120;26;20263;-53
2024/04/22 03:29:00;;;;;;;0.00;0.00;;;19.80;48.20;;;;;;5410742;26;20817;-48
2024/04/22 03:31:31;;;;;;;0.00;0.00;;;19.80;48.00;;;;;;5411363;26;20252;-50
2024/04/22 03:34:03;;;;;;;0.10;0.10;;;19.70;47.90;;;;;;5409858;26;20225;-47
2024/04/22 03:36:33;;;;;;;0.00;0.00;;;19.70;47.80;;;;;;5374336;26;20214;-50
2024/04/22 03:39:08;;;;;;;0.00;0.00;;;19.70;47.70;;;;;;5375768;26;20277;-48
2024/04/22 03:41:41;;;;;;;0.00;0.00;;;19.70;47.70;;;;;;5379429;26;20225;-55
2024/04/22 03:44:13;;;;;;;0.08;0.08;;;19.70;47.70;;;;;;5399452;26;20324;-49
2024/04/22 03:52:21;;;;;;;0.00;0.00;;;19.70;47.70;;;;;;5413342;26;20263;-54
2024/04/22 03:54:57;;;;;;;0.10;0.10;;;19.70;47.70;;;;;;5410986;26;20543;-48
2024/04/22 03:57:29;;;;;;;0.00;0.00;;;19.70;47.80;;;;;;5408811;26;20224;-48
2024/04/22 04:00:01;;;;;;;0.00;0.00;;;19.70;47.80;;;;;;5404576;26;20334;-48
2024/04/22 04:02:32;;;;;;;0.00;0.00;;;19.70;47.80;;;;;;5410767;26;20217;-50
2024/04/22 04:05:04;;;;;;;0.00;0.00;;;19.80;47.90;;;;;;5409428;26;20260;-51
2024/04/22 04:07:33;;;;;;;0.00;0.00;;;19.80;47.90;;;;;;5411328;26;20249;-47
2024/04/22 04:10:09;;;;;;;0.10;0.10;;;19.80;47.90;;;;;;5381083;26;20222;-48
2024/04/22 04:12:38;;;;;;;0.00;0.00;;;19.80;47.80;;;;;;5407709;26;20229;-47
2024/04/22 04:15:11;;;;;;;0.00;0.00;;;19.80;47.90;;;;;;5409718;26;20705;-47
2024/04/22 04:17:41;;;;;;;0.00;0.00;;;19.80;47.80;;;;;;5409887;26;20213;-48
2024/04/22 04:20:13;;;;;;;0.10;0.10;;;19.80;47.80;;;;;;5409962;26;20233;-50
2024/04/22 04:22:42;;;;;;;0.05;0.05;;;19.80;47.70;;;;;;5409036;26;20248;-51
2024/04/22 04:25:18;;;;;;;0.08;0.08;;;19.80;47.70;;;;;;5406042;26;20229;-50
2024/04/22 04:27:48;;;;;;;0.00;0.00;;;19.80;47.70;;;;;;5378947;26;20265;-47
2024/04/22 04:30:20;;;;;;;0.00;0.00;;;19.80;47.70;;;;;;5378656;26;20234;-46
2024/04/22 04:32:49;;;;;;;0.00;0.00;;;19.80;47.70;;;;;;5378873;26;20222;-46
2024/04/22 04:35:21;;;;;;;0.00;0.00;;;19.90;47.80;;;;;;5378698;26;20230;-47
2024/04/22 04:37:51;;;;;;;0.00;0.00;;;19.90;47.70;;;;;;5378716;26;20225;-47
2024/04/22 04:40:26;;;;;;;0.00;0.00;;;19.80;47.70;;;;;;5378294;26;20722;-48
2024/04/22 04:42:56;;;;;;;0.10;0.10;;;19.90;47.70;;;;;;5379034;26;20256;-47
2024/04/22 04:45:28;;;;;;;0.08;0.08;;;19.90;47.60;;;;;;5408332;26;20704;-47
2024/04/22 04:47:57;;;;;;;0.00;0.00;;;19.90;47.60;;;;;;5414210;26;20213;-46
2024/04/22 04:50:29;;;;;;;0.00;0.00;;;19.90;47.60;;;;;;5414303;26;20323;-47
2024/04/22 04:52:59;;;;;;;0.00;0.00;;;19.90;47.60;;;;;;5415823;26;20260;-47
2024/04/22 04:55:34;;;;;;;0.00;0.00;;;19.90;47.60;;;;;;5417650;26;20260;-49
2024/04/22 04:58:03;;;;;;;0.00;0.00;;;19.90;47.60;;;;;;5417262;26;20217;-47
2024/04/22 05:00:35;;;;;;;0.10;0.10;;;19.90;47.60;;;;;;5417221;26;20295;-47
2024/04/22 05:03:05;;;;;;;0.10;0.10;;;19.90;47.70;;;;;;5417659;26;20268;-49
2024/04/22 05:05:37;;;;;;;0.00;0.00;;;19.90;47.70;;;;;;5417960;26;20218;-47
2024/04/22 05:08:07;;;;;;;0.10;0.10;;;19.90;47.70;;;;;;5418117;26;20217;-47
2024/04/22 05:10:42;;;;;;;0.00;0.00;;;19.90;47.70;;;;;;5417509;26;20221;-47
2024/04/22 05:13:11;;;;;;;0.05;0.05;;;19.90;47.70;;;;;;5414617;26;20294;-47
2024/04/22 05:15:44;;;;;;;0.10;0.10;;;19.90;47.70;;;;;;5417487;26;20265;-47
2024/04/22 05:18:13;;;;;;;0.00;0.00;;;19.90;47.70;;;;;;5417424;26;20209;-48
2024/04/22 05:20:45;;;;;;;0.03;0.03;;;19.80;47.60;;;;;;5417115;26;20569;-47
2024/04/22 05:23:14;;;;;;;0.00;0.00;;;19.90;47.70;;;;;;5417504;26;20750;-47
2024/04/22 05:25:50;;;;;;;0.08;0.08;;;19.90;47.70;;;;;;5417528;26;20221;-48
2024/04/22 05:28:22;;;;;;;0.00;0.00;;;19.90;47.60;;;;;;5417111;26;20330;-48
2024/04/22 05:30:54;;;;;;;0.05;0.05;;;19.90;47.70;;;;;;5416684;26;20264;-47
2024/04/22 05:36:14;;;;;;;0.00;0.00;;;19.90;47.70;;;;;;5420080;26;20256;-48
2024/04/22 05:38:48;;;;;;;0.00;0.00;;;19.80;47.60;;;;;;5402874;26;20487;-47
2024/04/22 05:41:23;;;;;;;0.00;0.00;;;19.90;47.60;;;;;;5381691;26;20278;-47
2024/04/22 05:43:55;;;;;;;0.10;0.10;;;19.80;47.60;;;;;;5381697;26;20218;-47
2024/04/22 05:46:28;;;;;;;0.00;0.00;;;19.80;47.70;;;;;;5406299;26;20216;-47
2024/04/22 05:49:00;;;;;;;0.00;0.00;;;19.80;47.70;;;;;;5417324;26;20602;-47
2024/04/22 05:51:29;;;;;;;0.00;0.00;;;19.80;47.70;;;;;;5417207;26;20689;-48
2024/04/22 05:54:02;;;;;;;0.00;0.00;;;19.80;47.70;;;;;;5417126;26;20718;-47
2024/04/22 05:56:34;;;;;;;0.03;0.03;;;19.80;47.70;;;;;;5411527;26;20651;-47
2024/04/22 05:59:08;;;;;;;0.00;0.00;;;19.80;47.70;;;;;;5416871;26;20865;-47
2024/04/22 06:01:40;;;;;;;0.10;0.10;;;19.80;47.70;;;;;;5416879;26;20269;-47
2024/04/22 06:04:10;;;;;;;0.10;0.10;;;19.80;47.70;;;;;;5382659;26;20227;-49
2024/04/22 06:06:42;;;;;;;0.10;0.10;;;19.80;47.70;;;;;;5400495;26;20276;-46
2024/04/22 06:09:12;;;;;;;0.10;0.10;;;19.80;47.70;;;;;;5416933;26;20234;-46
2024/04/22 06:11:47;;;;;;;0.00;0.00;;;19.80;47.70;;;;;;5416914;26;20334;-46
2024/04/22 06:14:16;;;;;;;0.10;0.10;;;19.80;47.70;;;;;;5411333;26;20224;-47
2024/04/22 06:16:51;;;;;;;0.10;0.10;;;19.80;47.70;;;;;;5416583;26;20245;-46
2024/04/22 06:19:20;;;;;;;0.00;0.00;;;19.80;47.70;;;;;;5416595;26;20353;-47
2024/04/22 06:21:52;;;;;;;0.10;0.10;;;19.70;47.70;;;;;;5416434;26;20268;-47
2024/04/22 06:24:21;;;;;;;0.00;0.00;;;19.70;47.70;;;;;;5416477;26;20217;-47
2024/04/22 06:26:57;;;;;;;0.10;0.10;;;19.70;47.70;;;;;;5416921;26;20221;-48
2024/04/22 06:29:27;;;;;;;0.03;0.03;;;19.70;47.70;;;;;;5415903;26;20736;-47
2024/04/22 06:31:59;;;;;;;0.10;0.10;;;19.70;47.80;;;;;;5416100;26;20752;-47
2024/04/22 06:34:28;;;;;;;0.10;0.10;;;19.70;47.70;;;;;;5414620;26;20263;-48
2024/04/22 06:37:00;;;;;;;0.00;0.00;;;19.70;47.70;;;;;;5414324;26;20218;-48
2024/04/22 06:39:30;;;;;;;0.10;0.10;;;19.70;47.70;;;;;;5401870;26;20298;-48
2024/04/22 06:42:05;;;;;;;0.00;0.00;;;19.70;47.70;;;;;;5380359;26;20222;-48
2024/04/22 06:44:34;;;;;;;0.00;0.00;;;19.70;47.80;;;;;;5380756;26;20551;-46
2024/04/22 06:47:06;;;;;;;0.00;0.00;;;19.70;47.70;;;;;;5414783;26;20281;-48
2024/04/22 06:49:38;;;;;;;0.10;0.10;;;19.60;47.70;;;;;;5416127;26;20225;-49
2024/04/22 06:52:10;;;;;;;0.00;0.00;;;19.60;47.70;;;;;;5415800;26;20248;-49
2024/04/22 06:54:39;;;;;;;0.00;0.00;;;19.60;47.70;;;;;;5416083;26;20688;-49
2024/04/22 06:57:15;;;;;;;0.10;0.10;;;19.60;47.70;;;;;;5416341;26;20609;-50
2024/04/22 06:59:46;;;;;;;0.00;0.00;;;19.60;47.70;;;;;;5416384;26;20229;-49
2024/04/22 07:02:18;;;;;;;0.00;0.00;;;19.60;47.70;;;;;;5416275;26;20217;-46
2024/04/22 07:04:48;;;;;;;0.05;0.05;;;19.60;47.70;;;;;;5415419;26;20213;-48
2024/04/22 07:07:20;;;;;;;0.10;0.10;;;19.50;47.70;;;;;;5415814;26;20214;-49
2024/04/22 07:09:49;;;;;;;0.00;0.00;;;19.50;47.70;;;;;;5412893;26;20281;-48
2024/04/22 07:12:25;;;;;;;0.10;0.10;;;19.50;47.70;;;;;;5415782;26;20318;-47
2024/04/22 07:14:54;;;;;;;0.10;0.10;;;19.50;47.70;;;;;;5415436;26;20272;-48
2024/04/22 07:17:26;;;;;;;0.10;0.10;;;19.50;47.70;;;;;;5415103;26;20314;-47
2024/04/22 07:19:55;;;;;;;0.10;0.10;;;19.50;47.70;;;;;;5415374;26;20329;-47
2024/04/22 07:22:29;;;;;;;0.00;0.00;;;19.50;47.70;;;;;;5415214;26;20255;-48
2024/04/22 07:24:59;;;;;;;0.00;0.00;;;19.50;47.70;;;;;;5415916;26;20252;-47
2024/04/22 07:27:35;;;;;;;0.10;0.10;;;19.50;47.70;;;;;;5416462;26;20217;-48
2024/04/22 07:30:05;;;;;;;0.00;0.00;;;19.40;47.70;;;;;;5415827;26;20639;-46
2024/04/22 07:32:38;;;;;;;0.00;0.00;;;19.40;47.70;;;;;;5415774;26;20717;-46
2024/04/22 07:35:08;;;;;;;0.10;0.10;;;19.40;47.80;;;;;;5415401;26;20264;-47
2024/04/22 07:37:44;;;;;;;0.10;0.10;;;19.40;47.70;;;;;;5415494;26;20677;-46
2024/04/22 07:40:17;;;;;;;0.00;0.00;;;19.40;47.70;;;;;;5415545;26;20267;-47
2024/04/22 07:42:53;;;;;;;0.00;0.00;;;19.40;47.70;;;;;;5415608;26;20221;-52
2024/04/22 07:45:23;;;;;;;0.00;0.00;;;19.40;47.80;;;;;;5401737;26;20226;-48
2024/04/22 07:47:55;;;;;;;0.05;0.05;;;19.40;47.70;;;;;;5380023;26;20230;-47
2024/04/22 07:50:24;;;;;;;0.00;0.00;;;19.40;47.80;;;;;;5381926;26;20238;-47
2024/04/22 07:53:00;;;;;;;0.10;0.10;;;19.30;47.70;;;;;;5415608;26;20224;-47
2024/04/22 07:55:29;;;;;;;0.00;0.00;;;19.30;47.80;;;;;;5412312;26;20237;-47
2024/04/22 07:58:06;;;;;;;0.10;0.10;;;19.30;47.80;;;;;;5415067;26;20252;-46
2024/04/22 08:00:37;;;;;;;0.00;0.00;;;19.30;47.70;;;;;;5414809;26;20272;-47
2024/04/22 08:03:09;;;;;;;0.00;0.00;;;19.30;47.70;;;;;;5414259;26;20721;-47
2024/04/22 08:05:39;;;;;;;0.05;0.05;;;19.30;47.70;;;;;;5409421;26;20290;-47
2024/04/22 08:08:11;;;;;;;0.00;0.00;;;19.30;47.80;;;;;;5415132;26;20229;-46
2024/04/22 08:10:41;;;;;;;0.00;0.00;;;19.20;47.70;;;;;;5409659;26;20275;-46
2024/04/22 08:13:16;;;;;;;0.00;0.00;;;19.20;47.70;;;;;;5382846;26;20242;-46
2024/04/22 08:15:45;;;;;;;0.08;0.08;;;19.20;47.50;;;;;;5393503;26;20247;-47
2024/04/22 08:18:17;;;;;;;0.03;0.03;;;19.20;47.40;;;;;;5413893;26;20272;-47
2024/04/22 08:20:46;;;;;;;0.08;0.08;;;19.20;47.40;;;;;;5414735;26;20217;-47
2024/04/22 08:23:20;;;;;;;0.00;0.00;;;19.10;47.40;;;;;;5414496;26;20221;-46
2024/04/22 08:25:49;;;;;;;0.00;0.00;;;19.10;47.40;;;;;;5409265;26;20288;-49
2024/04/22 08:28:24;;;;;;;0.00;0.00;;;19.10;47.40;;;;;;5375630;26;20218;-48
2024/04/22 08:31:01;;;;;;;0.10;0.10;;;19.10;47.50;;;;;;5375723;26;20248;-47
2024/04/22 08:33:34;;;;;;;0.00;0.00;;;19.00;47.40;;;;;;5375972;26;20226;-48
2024/04/22 08:36:03;;;;;;;0.00;0.00;;;19.00;47.40;;;;;;5375079;26;20878;-50
2024/04/22 08:38:35;;;;;;;0.10;0.10;;;19.00;47.50;;;;;;5375269;26;20302;-50
2024/04/22 08:41:21;;;;;;;0.10;0.10;;;19.00;47.50;;;;;;5374945;26;20218;-49
2024/04/22 08:43:57;;;;;;;0.10;0.10;;;19.00;47.50;;;;;;5366052;26;20698;-48
2024/04/22 08:46:29;;;;;;;0.03;0.03;;;19.00;47.50;;;;;;5398705;26;20214;-50
2024/04/22 08:48:58;;;;;;;0.00;0.00;;;19.00;47.50;;;;;;5398592;26;20230;-48
2024/04/22 08:51:31;;;;;;;0.10;0.10;;;18.90;47.50;;;;;;5375509;26;20214;-49
2024/04/22 08:54:00;;;;;;;0.10;0.10;;;18.90;47.50;;;;;;5375724;26;20269;-48
2024/04/22 08:56:34;;;;;;;0.03;0.03;;;18.90;47.50;;;;;;5375772;26;20222;-47
2024/04/22 08:59:10;;;;;;;0.10;0.10;;;18.90;47.60;;;;;;5375775;26;20230;-48
2024/04/22 09:01:39;;;;;;;0.00;0.00;;;18.90;47.60;;;;;;5374924;26;20214;-47
2024/04/22 09:04:12;;;;;;;0.10;0.10;;;18.80;48.20;;;;;;5375549;26;20218;-48
2024/04/22 09:06:42;;;;;;;0.00;0.00;;;18.80;47.60;;;;;;5375200;26;20249;-47
2024/04/22 09:09:15;;;;;;;0.00;0.00;;;18.80;47.60;;;;;;5375200;26;20681;-47
2024/04/22 09:11:49;;;;;;;0.00;0.00;;;18.80;47.60;;;;;;5374180;26;20573;-47
2024/04/22 09:14:25;;;;;;;0.00;0.00;;;18.80;47.60;;;;;;5374893;26;20257;-48
2024/04/22 09:16:57;;;;;;;0.00;0.00;;;18.80;48.20;;;;;;5406647;26;20217;-46
2024/04/22 09:19:27;;;;;;;0.08;0.08;;;18.80;47.60;;;;;;5410892;26;20565;-47
2024/04/22 09:21:59;;;;;;;0.00;0.00;;;18.70;47.60;;;;;;5410234;26;20252;-49
2024/04/22 09:24:28;;;;;;;0.05;0.05;;;18.70;47.60;;;;;;5410265;26;20214;-47
2024/04/22 09:27:00;;;;;;;0.10;0.10;;;18.70;47.60;;;;;;5410690;26;20269;-48
2024/04/22 09:29:41;;;;;;;0.10;0.10;;;18.70;47.60;;;;;;5407304;26;20302;-46
2024/04/22 09:32:16;;;;;;;0.10;0.10;;;18.70;47.60;;;;;;5401903;26;20708;-47
2024/04/22 09:34:46;;;;;;;0.00;0.00;;;18.70;47.60;;;;;;5384639;26;20230;-48
2024/04/22 09:37:19;;;;;;;0.10;0.10;;;18.60;47.60;;;;;;5399889;26;20566;-47
2024/04/22 09:39:50;;;;;;;0.00;0.00;;;18.70;47.60;;;;;;5379708;26;20218;-48
2024/04/22 09:42:24;;;;;;;0.05;0.05;;;18.60;47.60;;;;;;5368252;26;20760;-46
2024/04/22 09:44:57;;;;;;;0.00;0.00;;;18.60;47.60;;;;;;5378376;26;20222;-47
2024/04/22 09:47:31;;;;;;;0.05;0.05;;;18.60;47.60;;;;;;5408799;26;20276;-48
2024/04/22 09:50:01;;;;;;;0.10;0.10;;;18.60;47.60;;;;;;5409969;26;20225;-49
2024/04/22 09:52:33;;;;;;;0.10;0.10;;;18.60;47.70;;;;;;5408500;26;20229;-47
2024/04/22 09:55:03;;;;;;;0.10;0.10;;;18.60;47.70;;;;;;5409629;26;20244;-48
2024/04/22 09:57:38;;;;;;;0.10;0.10;;;18.60;47.70;;;;;;5408989;26;20280;-48
2024/04/22 10:00:11;;;;;;;0.00;0.00;;;18.50;47.70;;;;;;5408212;26;20232;-47
2024/04/22 10:02:44;;;;;;;0.00;0.00;;;18.50;47.70;;;;;;5372820;26;20226;-47
2024/04/22 10:05:14;;;;;;;0.08;0.08;;;18.50;47.70;;;;;;5372638;26;20336;-49
2024/04/22 10:07:46;;;;;;;0.00;0.00;;;18.50;47.70;;;;;;5373887;26;20257;-47
2024/04/22 10:10:18;;;;;;;0.10;0.10;;;18.50;47.70;;;;;;5396749;26;20322;-48
2024/04/22 10:12:50;;;;;;;0.00;0.00;;;18.50;47.70;;;;;;5409277;26;20217;-49
2024/04/22 10:15:23;;;;;;;0.10;0.10;;;18.50;47.70;;;;;;5408944;26;20229;-50
2024/04/22 10:17:56;;;;;;;0.00;0.00;;;18.50;47.70;;;;;;5408082;26;20265;-50
2024/04/22 10:20:33;;;;;;;0.10;0.10;;;18.50;47.80;;;;;;5379513;26;20226;-47
2024/04/22 10:23:06;;;;;;;0.10;0.10;;;18.40;47.70;;;;;;5372211;26;20260;-48
2024/04/22 10:25:35;;;;;;;0.05;0.05;;;18.40;47.70;;;;;;5372841;26;20629;-49
2024/04/22 10:28:08;;;;;;;0.10;0.10;;;18.50;47.80;;;;;;5393084;26;20334;-46
2024/04/22 10:30:40;;;;;;;0.00;0.00;;;18.40;47.70;;;;;;5408411;26;20267;-47
2024/04/22 10:33:13;;;;;;;0.10;0.10;;;18.40;47.80;;;;;;5408755;26;20225;-46
2024/04/22 10:35:43;;;;;;;0.00;0.00;;;18.40;47.80;;;;;;5408361;26;20793;-49
2024/04/22 10:38:15;;;;;;;0.10;0.10;;;18.40;47.80;;;;;;5406481;26;20217;-46
2024/04/22 10:40:44;;;;;;;0.00;0.00;;;18.30;47.70;;;;;;5393654;26;20217;-48
2024/04/22 10:43:17;;;;;;;0.00;0.00;;;18.30;47.70;;;;;;5404487;26;20244;-50
2024/04/22 10:45:50;;;;;;;0.10;0.10;;;18.30;47.80;;;;;;5409143;26;20771;-49
2024/04/22 10:48:22;;;;;;;0.00;0.00;;;18.40;47.80;;;;;;5407856;26;20272;-46
2024/04/22 10:50:54;;;;;;;0.00;0.00;;;18.30;47.80;;;;;;5406328;26;20564;-49
2024/04/22 10:53:26;;;;;;;0.10;0.10;;;18.30;48.00;;;;;;5407442;26;20217;-50
2024/04/22 10:55:55;;;;;;;0.10;0.10;;;18.30;48.30;;;;;;5408233;26;20689;-48
2024/04/22 10:58:28;;;;;;;0.00;0.00;;;18.40;48.30;;;;;;5407567;26;20210;-49
2024/04/22 11:01:02;;;;;;;0.10;0.10;;;18.30;48.20;;;;;;5407403;26;20276;-48
2024/04/22 11:03:35;;;;;;;0.00;0.00;;;18.40;48.20;;;;;;5408165;26;20223;-47
2024/04/22 11:06:05;;;;;;;0.00;0.00;;;18.30;48.10;;;;;;5407042;26;20658;-48
2024/04/22 11:08:39;;;;;;;0.10;0.10;;;18.40;48.20;;;;;;5385571;26;20630;-48
2024/04/22 11:11:09;;;;;;;0.00;0.00;;;18.30;48.10;;;;;;5410614;26;20233;-47
2024/04/22 11:13:41;;;;;;;0.10;0.10;;;18.30;48.20;;;;;;5409907;26;20314;-48
2024/04/22 11:16:15;;;;;;;0.05;0.05;;;18.30;48.20;;;;;;5410460;26;20213;-47
2024/04/22 11:18:48;;;;;;;0.03;0.03;;;18.30;48.20;;;;;;5409371;26;20761;-50
2024/04/22 11:21:17;;;;;;;0.00;0.00;;;18.30;48.10;;;;;;5410521;26;20260;-51
2024/04/22 11:23:49;;;;;;;0.05;0.05;;;18.20;48.00;;;;;;5411177;26;20271;-48
2024/04/22 11:26:19;;;;;;;0.00;0.00;;;18.20;48.10;;;;;;5410292;26;20217;-50
2024/04/22 11:28:52;;;;;;;0.00;0.00;;;18.20;48.00;;;;;;5410546;26;20229;-48
2024/04/22 11:31:26;;;;;;;0.03;0.03;;;18.20;48.10;;;;;;5410086;26;20221;-48
2024/04/22 11:34:00;;;;;;;0.08;0.08;;;18.20;48.00;;;;;;5408948;26;20212;-49
2024/04/22 11:36:33;;;;;;;0.00;0.00;;;18.20;48.10;;;;;;5410353;26;20225;-50
2024/04/22 11:39:17;;;;;;;0.00;0.00;;;18.20;48.00;;;;;;5409604;26;20236;-49
2024/04/22 11:41:47;;;;;;;0.05;0.05;;;18.20;48.00;;;;;;5409860;26;20329;-48
2024/04/22 11:44:19;;;;;;;0.10;0.10;;;18.20;48.00;;;;;;5410892;26;20359;-48
2024/04/22 11:46:52;;;;;;;0.10;0.10;;;18.20;48.10;;;;;;5386925;26;20218;-48
2024/04/22 11:49:25;;;;;;;0.08;0.08;;;18.10;48.00;;;;;;5403917;26;20268;-48
2024/04/22 11:51:54;;;;;;;0.10;0.10;;;18.20;48.10;;;;;;5410268;26;20217;-50
2024/04/22 11:54:26;;;;;;;0.10;0.10;;;18.10;48.00;;;;;;5410496;26;20255;-49
2024/04/22 11:56:56;;;;;;;0.08;0.08;;;18.10;48.00;;;;;;5408655;26;20221;-49
2024/04/22 11:59:28;;;;;;;0.10;0.10;;;18.10;48.00;;;;;;5403038;26;20281;-46
2024/04/22 12:02:00;;;;;;;0.10;0.10;;;18.10;48.00;;;;;;5395926;26;20286;-48
2024/04/22 12:04:32;;;;;;;0.10;0.10;;;18.10;48.00;;;;;;5398534;26;20230;-46
2024/04/22 12:07:02;;;;;;;0.00;0.00;;;18.10;48.00;;;;;;5399172;26;20234;-46
2024/04/22 12:09:34;;;;;;;0.10;0.10;;;18.10;48.00;;;;;;5394843;26;20602;-46
2024/04/22 12:12:04;;;;;;;0.00;0.00;;;18.10;48.60;;;;;;5395555;26;20590;-46
2024/04/22 12:14:36;;;;;;;0.00;0.00;;;18.10;48.00;;;;;;5395440;26;20878;-47
2024/04/22 12:17:09;;;;;;;0.10;0.10;;;18.10;48.00;;;;;;5399574;26;20230;-47
2024/04/22 12:19:42;;;;;;;0.00;0.00;;;18.10;48.00;;;;;;5399820;26;20233;-47
2024/04/22 12:22:11;;;;;;;0.08;0.08;;;18.00;48.00;;;;;;5398784;26;20689;-47
2024/04/22 12:24:43;;;;;;;0.00;0.00;;;18.00;48.00;;;;;;5397540;26;20230;-47
2024/04/22 12:27:12;;;;;;;0.00;0.00;;;18.00;47.90;;;;;;5395236;26;20234;-49
2024/04/22 12:29:45;;;;;;;0.05;0.05;;;18.00;48.00;;;;;;5395305;26;20767;-47
2024/04/22 12:32:17;;;;;;;0.10;0.10;;;18.00;48.00;;;;;;5397745;26;20345;-48
2024/04/22 12:34:50;;;;;;;0.10;0.10;;;18.00;48.00;;;;;;5395115;26;20276;-47
2024/04/22 12:37:19;;;;;;;0.10;0.10;;;18.00;48.00;;;;;;5412576;26;20743;-46
2024/04/22 12:39:51;;;;;;;0.03;0.03;;;18.00;48.00;;;;;;5414366;26;20229;-47
2024/04/22 12:42:21;;;;;;;0.10;0.10;;;18.00;48.00;;;;;;5414282;26;20256;-47
2024/04/22 12:44:53;;;;;;;0.10;0.10;;;17.90;48.00;;;;;;5414521;26;20232;-47
2024/04/22 12:53:02;;;;;;;0.10;0.10;;;18.00;48.00;;;;;;5417683;26;20267;-50
2024/04/22 12:55:34;;;;;;;0.00;0.00;;;17.90;47.90;;;;;;5414737;26;20213;-48
2024/04/22 12:58:06;;;;;;;0.10;0.10;;;17.90;47.90;;;;;;5414295;26;20213;-47
2024/04/22 13:00:39;;;;;;;0.00;0.00;;;17.90;47.90;;;;;;5414507;26;20225;-48
2024/04/22 13:03:14;;;;;;;0.08;0.08;;;17.90;48.00;;;;;;5414522;26;20217;-47
2024/04/22 13:05:47;;;;;;;0.10;0.10;;;17.90;48.00;;;;;;5410902;26;20224;-47
2024/04/22 13:08:19;;;;;;;0.10;0.10;;;17.90;48.00;;;;;;5414316;26;20217;-47
2024/04/22 13:10:51;;;;;;;0.10;0.10;;;17.90;47.90;;;;;;5414344;26;20217;-47
2024/04/22 13:13:24;;;;;;;0.10;0.10;;;17.90;48.00;;;;;;5414735;26;20328;-48
2024/04/22 13:15:56;;;;;;;0.10;0.10;;;17.90;48.00;;;;;;5417433;26;20229;-47
2024/04/22 13:18:31;;;;;;;0.10;0.10;;;17.80;47.90;;;;;;5417746;26;20279;-47
2024/04/22 13:21:04;;;;;;;0.05;0.05;;;17.90;48.00;;;;;;5417440;26;20217;-47
2024/04/22 13:23:33;;;;;;;0.10;0.10;;;17.80;48.50;;;;;;5417860;26;20221;-47
2024/04/22 13:26:05;;;;;;;0.10;0.10;;;17.80;47.90;;;;;;5418033;26;20568;-48